sensor_id;sensor_type;location;lat;lon;timestamp;temperature;humidity
17938;DHT22;16051;53.024;8.630;2023-02-13T00:00:15;8.50;99.90
17938;DHT22;16051;53.024;8.630;2023-02-13T00:04:20;8.40;99.90
17938;DHT22;16051;53.024;8.630;2023-02-13T00:08:22;8.40;99.90
17938;DHT22;16051;53.024;8.630;2023-02-13T00:12:29;8.40;99.90
17938;DHT22;16051;53.024;8.630;2023-02-13T00:16:32;8.40;99.90
17938;DHT22;16051;53.024;8.630;2023-02-13T00:20:36;8.40;99.90
17938;DHT22;16051;53.024;8.630;2023-02-13T00:24:38;8.40;99.90
17938;DHT22;16051;53.024;8.630;2023-02-13T00:28:41;8.40;99.90
17938;DHT22;16051;53.024;8.630;2023-02-13T00:32:44;8.40;99.90
17938;DHT22;16051;53.024;8.630;2023-02-13T00:36:47;8.40;99.90
17938;DHT22;16051;53.024;8.630;2023-02-13T00:40:49;8.40;99.90
17938;DHT22;16051;53.024;8.630;2023-02-13T00:44:52;8.30;99.90
17938;DHT22;16051;53.024;8.630;2023-02-13T00:48:54;8.30;99.90
17938;DHT22;16051;53.024;8.630;2023-02-13T00:52:58;8.40;99.90
17938;DHT22;16051;53.024;8.630;2023-02-13T00:57:00;8.30;99.90
17938;DHT22;16051;53.024;8.630;2023-02-13T01:01:02;8.30;99.90
17938;DHT22;16051;53.024;8.630;2023-02-13T01:05:05;8.30;99.90
17938;DHT22;16051;53.024;8.630;2023-02-13T01:09:09;8.30;99.90
17938;DHT22;16051;53.024;8.630;2023-02-13T01:13:12;8.20;99.90
17938;DHT22;16051;53.024;8.630;2023-02-13T01:17:15;8.20;99.90
17938;DHT22;16051;53.024;8.630;2023-02-13T01:21:19;8.20;99.90
17938;DHT22;16051;53.024;8.630;2023-02-13T01:25:24;8.20;99.90
17938;DHT22;16051;53.024;8.630;2023-02-13T01:29:31;8.20;99.90
17938;DHT22;16051;53.024;8.630;2023-02-13T01:33:34;8.20;99.90
17938;DHT22;16051;53.024;8.630;2023-02-13T01:37:36;8.20;99.90
17938;DHT22;16051;53.024;8.630;2023-02-13T01:41:40;8.20;99.90
17938;DHT22;16051;53.024;8.630;2023-02-13T01:45:45;8.10;99.90
17938;DHT22;16051;53.024;8.630;2023-02-13T01:49:54;8.10;99.90
17938;DHT22;16051;53.024;8.630;2023-02-13T01:54:06;8.10;99.90
17938;DHT22;16051;53.024;8.630;2023-02-13T01:58:16;8.10;99.90
17938;DHT22;16051;53.024;8.630;2023-02-13T02:02:21;8.10;99.90
17938;DHT22;16051;53.024;8.630;2023-02-13T02:06:31;8.10;99.90
17938;DHT22;16051;53.024;8.630;2023-02-13T02:10:36;8.10;99.90
17938;DHT22;16051;53.024;8.630;2023-02-13T02:14:40;8.10;99.90
17938;DHT22;16051;53.024;8.630;2023-02-13T02:18:43;8.10;99.90
17938;DHT22;16051;53.024;8.630;2023-02-13T02:28:09;8.00;99.90
17938;DHT22;16051;53.024;8.630;2023-02-13T02:32:47;8.10;99.90
17938;DHT22;16051;53.024;8.630;2023-02-13T02:37:10;8.00;99.90
17938;DHT22;16051;53.024;8.630;2023-02-13T02:41:28;8.00;99.90
17938;DHT22;16051;53.024;8.630;2023-02-13T02:45:49;8.00;99.90
17938;DHT22;16051;53.024;8.630;2023-02-13T02:50:07;8.00;99.90
17938;DHT22;16051;53.024;8.630;2023-02-13T02:54:24;8.00;99.90
17938;DHT22;16051;53.024;8.630;2023-02-13T02:58:49;8.00;99.90
17938;DHT22;16051;53.024;8.630;2023-02-13T03:03:17;8.00;99.90
17938;DHT22;16051;53.024;8.630;2023-02-13T03:07:41;8.00;99.90
17938;DHT22;16051;53.024;8.630;2023-02-13T03:11:48;7.90;99.90
17938;DHT22;16051;53.024;8.630;2023-02-13T03:16:16;8.00;99.90
17938;DHT22;16051;53.024;8.630;2023-02-13T03:20:44;7.90;99.90
17938;DHT22;16051;53.024;8.630;2023-02-13T03:25:14;7.90;99.90
17938;DHT22;16051;53.024;8.630;2023-02-13T03:29:40;7.90;99.90
17938;DHT22;16051;53.024;8.630;2023-02-13T03:34:07;7.90;99.90
17938;DHT22;16051;53.024;8.630;2023-02-13T03:38:15;7.90;99.90
17938;DHT22;16051;53.024;8.630;2023-02-13T03:42:27;7.90;99.90
17938;DHT22;16051;53.024;8.630;2023-02-13T03:46:37;7.90;99.90
17938;DHT22;16051;53.024;8.630;2023-02-13T03:50:47;7.90;99.90
17938;DHT22;16051;53.024;8.630;2023-02-13T03:54:52;7.90;99.90
17938;DHT22;16051;53.024;8.630;2023-02-13T03:59:22;7.90;99.90
17938;DHT22;16051;53.024;8.630;2023-02-13T04:03:32;7.90;99.90
17938;DHT22;16051;53.024;8.630;2023-02-13T04:07:38;7.80;99.90
17938;DHT22;16051;53.024;8.630;2023-02-13T04:11:46;7.90;99.90
17938;DHT22;16051;53.024;8.630;2023-02-13T04:15:56;7.90;99.90
17938;DHT22;16051;53.024;8.630;2023-02-13T04:20:05;7.80;99.90
17938;DHT22;16051;53.024;8.630;2023-02-13T04:24:09;7.90;99.90
17938;DHT22;16051;53.024;8.630;2023-02-13T04:28:11;7.90;99.90
17938;DHT22;16051;53.024;8.630;2023-02-13T04:32:15;7.90;99.90
17938;DHT22;16051;53.024;8.630;2023-02-13T04:36:17;7.90;99.90
17938;DHT22;16051;53.024;8.630;2023-02-13T04:40:19;7.80;99.90
17938;DHT22;16051;53.024;8.630;2023-02-13T04:44:21;7.80;99.90
17938;DHT22;16051;53.024;8.630;2023-02-13T04:48:25;7.80;99.90
17938;DHT22;16051;53.024;8.630;2023-02-13T04:52:27;7.80;99.90
17938;DHT22;16051;53.024;8.630;2023-02-13T04:56:29;7.80;99.90
17938;DHT22;16051;53.024;8.630;2023-02-13T05:00:31;7.80;99.90
17938;DHT22;16051;53.024;8.630;2023-02-13T05:04:35;7.80;99.90
17938;DHT22;16051;53.024;8.630;2023-02-13T05:08:37;7.80;99.90
17938;DHT22;16051;53.024;8.630;2023-02-13T05:12:39;7.80;99.90
17938;DHT22;16051;53.024;8.630;2023-02-13T05:16:41;7.80;99.90
17938;DHT22;16051;53.024;8.630;2023-02-13T05:20:45;7.80;99.90
17938;DHT22;16051;53.024;8.630;2023-02-13T05:25:08;7.80;99.90
17938;DHT22;16051;53.024;8.630;2023-02-13T05:29:10;7.80;99.90
17938;DHT22;16051;53.024;8.630;2023-02-13T05:33:22;7.70;99.90
17938;DHT22;16051;53.024;8.630;2023-02-13T05:37:26;7.70;99.90
17938;DHT22;16051;53.024;8.630;2023-02-13T05:41:28;7.80;99.90
17938;DHT22;16051;53.024;8.630;2023-02-13T05:45:30;7.80;99.90
17938;DHT22;16051;53.024;8.630;2023-02-13T05:49:32;7.80;99.90
17938;DHT22;16051;53.024;8.630;2023-02-13T05:53:36;7.70;99.90
17938;DHT22;16051;53.024;8.630;2023-02-13T05:57:38;7.70;99.90
17938;DHT22;16051;53.024;8.630;2023-02-13T06:01:40;7.70;99.90
17938;DHT22;16051;53.024;8.630;2023-02-13T06:05:43;7.70;99.90
17938;DHT22;16051;53.024;8.630;2023-02-13T06:09:46;7.80;99.90
17938;DHT22;16051;53.024;8.630;2023-02-13T06:13:48;7.80;99.90
17938;DHT22;16051;53.024;8.630;2023-02-13T06:17:50;7.70;99.90
17938;DHT22;16051;53.024;8.630;2023-02-13T06:21:54;7.80;99.90
17938;DHT22;16051;53.024;8.630;2023-02-13T06:26:01;7.70;99.90
17938;DHT22;16051;53.024;8.630;2023-02-13T06:30:04;7.70;99.90
17938;DHT22;16051;53.024;8.630;2023-02-13T06:34:07;7.70;99.90
17938;DHT22;16051;53.024;8.630;2023-02-13T06:38:09;7.70;99.90
17938;DHT22;16051;53.024;8.630;2023-02-13T06:42:13;7.70;99.90
17938;DHT22;16051;53.024;8.630;2023-02-13T06:46:15;7.70;99.90
17938;DHT22;16051;53.024;8.630;2023-02-13T06:50:17;7.70;99.90
17938;DHT22;16051;53.024;8.630;2023-02-13T06:54:19;7.70;99.90
17938;DHT22;16051;53.024;8.630;2023-02-13T06:58:24;7.70;99.90
17938;DHT22;16051;53.024;8.630;2023-02-13T07:02:45;7.70;99.90
17938;DHT22;16051;53.024;8.630;2023-02-13T07:06:48;7.70;99.90
17938;DHT22;16051;53.024;8.630;2023-02-13T07:10:50;7.70;99.90
17938;DHT22;16051;53.024;8.630;2023-02-13T07:14:53;7.70;99.90
17938;DHT22;16051;53.024;8.630;2023-02-13T07:18:55;7.70;99.90
17938;DHT22;16051;53.024;8.630;2023-02-13T07:22:58;7.70;99.90
17938;DHT22;16051;53.024;8.630;2023-02-13T07:27:00;7.70;99.90
17938;DHT22;16051;53.024;8.630;2023-02-13T07:31:05;7.70;99.90
17938;DHT22;16051;53.024;8.630;2023-02-13T07:35:07;7.80;99.90
17938;DHT22;16051;53.024;8.630;2023-02-13T07:39:09;7.70;99.90
17938;DHT22;16051;53.024;8.630;2023-02-13T07:43:12;8.90;99.90
17938;DHT22;16051;53.024;8.630;2023-02-13T07:47:16;9.30;99.90
17938;DHT22;16051;53.024;8.630;2023-02-13T07:51:18;9.20;99.90
17938;DHT22;16051;53.024;8.630;2023-02-13T07:55:24;8.70;99.90
17938;DHT22;16051;53.024;8.630;2023-02-13T07:59:28;8.40;99.90
17938;DHT22;16051;53.024;8.630;2023-02-13T08:03:31;8.30;99.90
17938;DHT22;16051;53.024;8.630;2023-02-13T08:07:34;8.20;99.90
17938;DHT22;16051;53.024;8.630;2023-02-13T08:11:36;8.20;99.90
17938;DHT22;16051;53.024;8.630;2023-02-13T08:15:54;8.20;99.90
17938;DHT22;16051;53.024;8.630;2023-02-13T08:19:58;8.20;99.90
17938;DHT22;16051;53.024;8.630;2023-02-13T08:24:00;8.30;99.90
17938;DHT22;16051;53.024;8.630;2023-02-13T08:28:02;8.30;99.90
17938;DHT22;16051;53.024;8.630;2023-02-13T08:32:05;8.30;99.90
17938;DHT22;16051;53.024;8.630;2023-02-13T08:36:09;8.40;99.90
17938;DHT22;16051;53.024;8.630;2023-02-13T08:40:12;8.40;99.90
17938;DHT22;16051;53.024;8.630;2023-02-13T08:44:15;8.40;99.90
17938;DHT22;16051;53.024;8.630;2023-02-13T08:48:17;8.50;99.90
17938;DHT22;16051;53.024;8.630;2023-02-13T08:52:21;8.50;99.90
17938;DHT22;16051;53.024;8.630;2023-02-13T08:56:23;8.60;99.90
17938;DHT22;16051;53.024;8.630;2023-02-13T09:00:27;8.60;99.90
17938;DHT22;16051;53.024;8.630;2023-02-13T09:04:30;8.70;99.90
17938;DHT22;16051;53.024;8.630;2023-02-13T09:08:35;8.60;99.90
17938;DHT22;16051;53.024;8.630;2023-02-13T09:12:37;8.70;99.90
17938;DHT22;16051;53.024;8.630;2023-02-13T09:16:40;8.70;99.90
17938;DHT22;16051;53.024;8.630;2023-02-13T09:20:42;8.80;99.90
17938;DHT22;16051;53.024;8.630;2023-02-13T09:24:46;8.80;99.90
17938;DHT22;16051;53.024;8.630;2023-02-13T09:28:48;8.90;99.90
17938;DHT22;16051;53.024;8.630;2023-02-13T09:32:51;8.90;99.90
17938;DHT22;16051;53.024;8.630;2023-02-13T09:36:54;8.90;99.90
17938;DHT22;16051;53.024;8.630;2023-02-13T09:41:00;9.00;99.90
17938;DHT22;16051;53.024;8.630;2023-02-13T09:45:07;9.00;99.90
17938;DHT22;16051;53.024;8.630;2023-02-13T09:49:17;9.00;99.90
17938;DHT22;16051;53.024;8.630;2023-02-13T09:53:26;9.10;99.90
17938;DHT22;16051;53.024;8.630;2023-02-13T09:57:38;9.10;99.90
17938;DHT22;16051;53.024;8.630;2023-02-13T10:01:47;9.20;99.90
17938;DHT22;16051;53.024;8.630;2023-02-13T10:05:57;9.20;99.90
17938;DHT22;16051;53.024;8.630;2023-02-13T10:10:13;9.30;99.90
17938;DHT22;16051;53.024;8.630;2023-02-13T10:14:29;9.40;99.90
17938;DHT22;16051;53.024;8.630;2023-02-13T10:18:44;9.50;99.90
17938;DHT22;16051;53.024;8.630;2023-02-13T10:22:52;9.50;99.90
17938;DHT22;16051;53.024;8.630;2023-02-13T10:27:03;9.50;99.90
17938;DHT22;16051;53.024;8.630;2023-02-13T10:31:16;9.50;99.90
17938;DHT22;16051;53.024;8.630;2023-02-13T10:35:27;9.50;99.90
17938;DHT22;16051;53.024;8.630;2023-02-13T10:39:31;9.60;99.90
17938;DHT22;16051;53.024;8.630;2023-02-13T10:43:39;9.60;99.90
17938;DHT22;16051;53.024;8.630;2023-02-13T10:48:17;9.60;99.90
17938;DHT22;16051;53.024;8.630;2023-02-13T10:52:38;9.60;99.90
17938;DHT22;16051;53.024;8.630;2023-02-13T10:56:54;9.80;99.90
17938;DHT22;16051;53.024;8.630;2023-02-13T11:01:10;9.60;99.90
17938;DHT22;16051;53.024;8.630;2023-02-13T11:05:20;9.60;99.90
17938;DHT22;16051;53.024;8.630;2023-02-13T11:09:26;9.70;99.90
17938;DHT22;16051;53.024;8.630;2023-02-13T11:13:29;9.70;99.90
17938;DHT22;16051;53.024;8.630;2023-02-13T11:17:34;9.70;99.90
17938;DHT22;16051;53.024;8.630;2023-02-13T11:21:42;9.80;99.90
17938;DHT22;16051;53.024;8.630;2023-02-13T11:25:55;9.90;99.90
17938;DHT22;16051;53.024;8.630;2023-02-13T11:30:03;10.00;99.90
17938;DHT22;16051;53.024;8.630;2023-02-13T11:34:23;10.00;99.90
17938;DHT22;16051;53.024;8.630;2023-02-13T11:38:37;9.90;99.90
17938;DHT22;16051;53.024;8.630;2023-02-13T11:42:49;9.90;99.90
17938;DHT22;16051;53.024;8.630;2023-02-13T11:46:53;9.90;99.90
17938;DHT22;16051;53.024;8.630;2023-02-13T11:50:57;10.00;99.90
17938;DHT22;16051;53.024;8.630;2023-02-13T11:55:02;10.00;99.90
17938;DHT22;16051;53.024;8.630;2023-02-13T11:59:12;10.00;99.90
17938;DHT22;16051;53.024;8.630;2023-02-13T12:03:26;10.10;99.90
17938;DHT22;16051;53.024;8.630;2023-02-13T12:07:30;10.10;99.90
17938;DHT22;16051;53.024;8.630;2023-02-13T12:11:39;10.20;99.90
17938;DHT22;16051;53.024;8.630;2023-02-13T12:15:46;10.20;99.90
17938;DHT22;16051;53.024;8.630;2023-02-13T12:19:56;10.30;99.90
17938;DHT22;16051;53.024;8.630;2023-02-13T12:24:02;10.40;99.90
17938;DHT22;16051;53.024;8.630;2023-02-13T12:28:15;10.40;99.90
17938;DHT22;16051;53.024;8.630;2023-02-13T12:32:29;10.50;99.90
17938;DHT22;16051;53.024;8.630;2023-02-13T12:36:49;10.50;99.90
17938;DHT22;16051;53.024;8.630;2023-02-13T12:41:12;10.50;99.90
17938;DHT22;16051;53.024;8.630;2023-02-13T12:45:32;10.50;99.90
17938;DHT22;16051;53.024;8.630;2023-02-13T12:54:42;10.40;99.90
17938;DHT22;16051;53.024;8.630;2023-02-13T12:58:59;10.40;99.90
17938;DHT22;16051;53.024;8.630;2023-02-13T13:03:26;10.40;99.90
17938;DHT22;16051;53.024;8.630;2023-02-13T13:07:46;10.40;99.90
17938;DHT22;16051;53.024;8.630;2023-02-13T13:12:21;10.40;99.90
17938;DHT22;16051;53.024;8.630;2023-02-13T13:16:45;10.40;99.90
17938;DHT22;16051;53.024;8.630;2023-02-13T13:21:07;10.40;99.90
17938;DHT22;16051;53.024;8.630;2023-02-13T13:25:25;10.50;99.90
17938;DHT22;16051;53.024;8.630;2023-02-13T13:29:44;10.50;99.90
17938;DHT22;16051;53.024;8.630;2023-02-13T13:33:51;10.60;99.90
17938;DHT22;16051;53.024;8.630;2023-02-13T13:38:02;10.50;99.90
17938;DHT22;16051;53.024;8.630;2023-02-13T13:42:17;10.60;99.90
17938;DHT22;16051;53.024;8.630;2023-02-13T13:46:37;10.60;99.90
17938;DHT22;16051;53.024;8.630;2023-02-13T13:50:49;10.60;99.90
17938;DHT22;16051;53.024;8.630;2023-02-13T13:54:54;10.60;99.90
17938;DHT22;16051;53.024;8.630;2023-02-13T13:58:59;10.50;99.90
17938;DHT22;16051;53.024;8.630;2023-02-13T14:03:32;10.50;99.90
17938;DHT22;16051;53.024;8.630;2023-02-13T14:07:38;10.50;99.90
17938;DHT22;16051;53.024;8.630;2023-02-13T14:11:44;10.40;99.90
17938;DHT22;16051;53.024;8.630;2023-02-13T14:15:51;10.50;99.90
17938;DHT22;16051;53.024;8.630;2023-02-13T14:19:55;10.40;99.90
17938;DHT22;16051;53.024;8.630;2023-02-13T14:23:58;10.30;99.90
17938;DHT22;16051;53.024;8.630;2023-02-13T14:28:05;10.30;99.90
17938;DHT22;16051;53.024;8.630;2023-02-13T14:32:20;10.20;99.90
17938;DHT22;16051;53.024;8.630;2023-02-13T14:36:28;10.20;99.90
17938;DHT22;16051;53.024;8.630;2023-02-13T14:40:46;10.10;99.90
17938;DHT22;16051;53.024;8.630;2023-02-13T14:44:52;10.10;99.90
17938;DHT22;16051;53.024;8.630;2023-02-13T14:49:00;10.10;99.90
17938;DHT22;16051;53.024;8.630;2023-02-13T14:53:09;10.00;99.90
17938;DHT22;16051;53.024;8.630;2023-02-13T14:57:22;10.00;99.90
17938;DHT22;16051;53.024;8.630;2023-02-13T15:01:32;9.90;99.90
17938;DHT22;16051;53.024;8.630;2023-02-13T15:05:38;10.00;99.90
17938;DHT22;16051;53.024;8.630;2023-02-13T15:09:47;10.00;99.90
17938;DHT22;16051;53.024;8.630;2023-02-13T15:13:52;9.90;99.90
17938;DHT22;16051;53.024;8.630;2023-02-13T15:17:59;9.80;99.90
17938;DHT22;16051;53.024;8.630;2023-02-13T15:22:04;9.90;99.90
17938;DHT22;16051;53.024;8.630;2023-02-13T15:26:08;9.90;99.90
17938;DHT22;16051;53.024;8.630;2023-02-13T15:30:20;9.90;99.90
17938;DHT22;16051;53.024;8.630;2023-02-13T15:34:27;9.90;99.90
17938;DHT22;16051;53.024;8.630;2023-02-13T15:38:33;9.90;99.90
17938;DHT22;16051;53.024;8.630;2023-02-13T15:42:38;9.90;99.90
17938;DHT22;16051;53.024;8.630;2023-02-13T15:46:41;9.80;99.90
17938;DHT22;16051;53.024;8.630;2023-02-13T15:50:46;9.80;99.90
17938;DHT22;16051;53.024;8.630;2023-02-13T15:54:49;9.80;99.90
17938;DHT22;16051;53.024;8.630;2023-02-13T15:58:53;9.70;99.90
17938;DHT22;16051;53.024;8.630;2023-02-13T16:02:57;9.70;99.90
17938;DHT22;16051;53.024;8.630;2023-02-13T16:07:08;9.60;99.90
17938;DHT22;16051;53.024;8.630;2023-02-13T16:11:22;9.60;99.90
17938;DHT22;16051;53.024;8.630;2023-02-13T16:15:47;9.60;99.90
17938;DHT22;16051;53.024;8.630;2023-02-13T16:19:53;9.50;99.90
17938;DHT22;16051;53.024;8.630;2023-02-13T16:24:03;9.50;99.90
17938;DHT22;16051;53.024;8.630;2023-02-13T16:28:16;9.40;99.90
17938;DHT22;16051;53.024;8.630;2023-02-13T16:32:26;9.40;99.90
17938;DHT22;16051;53.024;8.630;2023-02-13T16:36:33;9.40;99.90
17938;DHT22;16051;53.024;8.630;2023-02-13T16:40:41;9.20;99.90
17938;DHT22;16051;53.024;8.630;2023-02-13T16:49:25;9.20;99.90
17938;DHT22;16051;53.024;8.630;2023-02-13T16:53:29;9.20;99.90
17938;DHT22;16051;53.024;8.630;2023-02-13T16:57:33;9.20;99.90
17938;DHT22;16051;53.024;8.630;2023-02-13T17:01:35;9.10;99.90
17938;DHT22;16051;53.024;8.630;2023-02-13T17:05:38;9.10;99.90
17938;DHT22;16051;53.024;8.630;2023-02-13T17:10:04;9.10;99.90
17938;DHT22;16051;53.024;8.630;2023-02-13T17:14:09;9.10;99.90
17938;DHT22;16051;53.024;8.630;2023-02-13T17:18:11;9.00;99.90
17938;DHT22;16051;53.024;8.630;2023-02-13T17:22:27;9.00;99.90
17938;DHT22;16051;53.024;8.630;2023-02-13T17:26:42;9.00;99.90
17938;DHT22;16051;53.024;8.630;2023-02-13T17:30:46;9.00;99.90
17938;DHT22;16051;53.024;8.630;2023-02-13T17:34:51;8.90;99.90
17938;DHT22;16051;53.024;8.630;2023-02-13T17:38:53;8.90;99.90
17938;DHT22;16051;53.024;8.630;2023-02-13T17:42:56;8.90;99.90
17938;DHT22;16051;53.024;8.630;2023-02-13T17:47:00;8.90;99.90
17938;DHT22;16051;53.024;8.630;2023-02-13T17:51:03;8.90;99.90
17938;DHT22;16051;53.024;8.630;2023-02-13T17:55:09;8.80;99.90
17938;DHT22;16051;53.024;8.630;2023-02-13T17:59:41;8.80;99.90
17938;DHT22;16051;53.024;8.630;2023-02-13T18:03:46;8.80;99.90
17938;DHT22;16051;53.024;8.630;2023-02-13T18:08:03;8.80;99.90
17938;DHT22;16051;53.024;8.630;2023-02-13T18:12:05;8.80;99.90
17938;DHT22;16051;53.024;8.630;2023-02-13T18:16:09;8.70;99.90
17938;DHT22;16051;53.024;8.630;2023-02-13T18:20:26;8.80;99.90
17938;DHT22;16051;53.024;8.630;2023-02-13T18:24:29;8.70;99.90
17938;DHT22;16051;53.024;8.630;2023-02-13T18:28:31;8.70;99.90
17938;DHT22;16051;53.024;8.630;2023-02-13T18:32:34;8.70;99.90
17938;DHT22;16051;53.024;8.630;2023-02-13T18:36:37;8.60;99.90
17938;DHT22;16051;53.024;8.630;2023-02-13T18:40:39;8.60;99.90
17938;DHT22;16051;53.024;8.630;2023-02-13T18:44:41;8.60;99.90
17938;DHT22;16051;53.024;8.630;2023-02-13T18:48:44;8.60;99.90
17938;DHT22;16051;53.024;8.630;2023-02-13T18:53:22;8.60;99.90
17938;DHT22;16051;53.024;8.630;2023-02-13T18:57:24;8.50;99.90
17938;DHT22;16051;53.024;8.630;2023-02-13T19:01:32;8.40;99.90
17938;DHT22;16051;53.024;8.630;2023-02-13T19:05:39;8.40;99.90
17938;DHT22;16051;53.024;8.630;2023-02-13T19:09:43;8.30;99.90
17938;DHT22;16051;53.024;8.630;2023-02-13T19:13:45;8.10;99.90
17938;DHT22;16051;53.024;8.630;2023-02-13T19:17:47;8.10;99.90
17938;DHT22;16051;53.024;8.630;2023-02-13T19:21:49;8.00;99.90
17938;DHT22;16051;53.024;8.630;2023-02-13T19:25:53;7.80;99.90
17938;DHT22;16051;53.024;8.630;2023-02-13T19:29:55;7.70;99.90
17938;DHT22;16051;53.024;8.630;2023-02-13T19:33:59;7.60;99.90
17938;DHT22;16051;53.024;8.630;2023-02-13T19:38:02;7.60;99.90
17938;DHT22;16051;53.024;8.630;2023-02-13T19:42:06;7.60;99.90
17938;DHT22;16051;53.024;8.630;2023-02-13T19:46:09;7.60;99.90
17938;DHT22;16051;53.024;8.630;2023-02-13T19:50:49;7.60;99.90
17938;DHT22;16051;53.024;8.630;2023-02-13T19:55:09;7.60;99.90
17938;DHT22;16051;53.024;8.630;2023-02-13T19:59:16;7.60;99.90
17938;DHT22;16051;53.024;8.630;2023-02-13T20:03:20;7.50;99.90
17938;DHT22;16051;53.024;8.630;2023-02-13T20:07:22;7.60;99.90
17938;DHT22;16051;53.024;8.630;2023-02-13T20:11:29;7.50;99.90
17938;DHT22;16051;53.024;8.630;2023-02-13T20:15:33;7.40;99.90
17938;DHT22;16051;53.024;8.630;2023-02-13T20:19:35;7.30;99.90
17938;DHT22;16051;53.024;8.630;2023-02-13T20:23:51;7.20;99.90
17938;DHT22;16051;53.024;8.630;2023-02-13T20:27:54;7.20;99.90
17938;DHT22;16051;53.024;8.630;2023-02-13T20:31:57;7.00;99.90
17938;DHT22;16051;53.024;8.630;2023-02-13T20:36:07;6.90;99.90
17938;DHT22;16051;53.024;8.630;2023-02-13T20:40:11;6.80;99.90
17938;DHT22;16051;53.024;8.630;2023-02-13T20:44:31;6.70;99.90
17938;DHT22;16051;53.024;8.630;2023-02-13T20:48:35;6.60;99.90
17938;DHT22;16051;53.024;8.630;2023-02-13T20:52:38;6.50;99.90
17938;DHT22;16051;53.024;8.630;2023-02-13T20:56:40;6.40;99.90
17938;DHT22;16051;53.024;8.630;2023-02-13T21:00:50;6.30;99.90
17938;DHT22;16051;53.024;8.630;2023-02-13T21:04:54;6.30;99.90
17938;DHT22;16051;53.024;8.630;2023-02-13T21:08:57;6.20;99.90
17938;DHT22;16051;53.024;8.630;2023-02-13T21:12:59;6.10;99.90
17938;DHT22;16051;53.024;8.630;2023-02-13T21:17:02;6.00;99.90
17938;DHT22;16051;53.024;8.630;2023-02-13T21:21:07;5.90;99.90
17938;DHT22;16051;53.024;8.630;2023-02-13T21:25:10;5.80;99.90
17938;DHT22;16051;53.024;8.630;2023-02-13T21:29:48;5.70;99.90
17938;DHT22;16051;53.024;8.630;2023-02-13T21:33:50;5.60;99.90
17938;DHT22;16051;53.024;8.630;2023-02-13T21:37:54;5.60;99.90
17938;DHT22;16051;53.024;8.630;2023-02-13T21:41:56;5.50;99.90
17938;DHT22;16051;53.024;8.630;2023-02-13T21:46:04;5.40;99.90
17938;DHT22;16051;53.024;8.630;2023-02-13T21:50:08;5.40;99.90
17938;DHT22;16051;53.024;8.630;2023-02-13T21:54:12;5.40;99.90
17938;DHT22;16051;53.024;8.630;2023-02-13T21:58:14;5.30;99.90
17938;DHT22;16051;53.024;8.630;2023-02-13T22:02:20;5.20;99.90
17938;DHT22;16051;53.024;8.630;2023-02-13T22:06:22;5.20;99.90
17938;DHT22;16051;53.024;8.630;2023-02-13T22:10:26;5.20;99.90
17938;DHT22;16051;53.024;8.630;2023-02-13T22:14:28;5.10;99.90
17938;DHT22;16051;53.024;8.630;2023-02-13T22:18:32;5.10;99.90
17938;DHT22;16051;53.024;8.630;2023-02-13T22:22:35;5.00;99.90
17938;DHT22;16051;53.024;8.630;2023-02-13T22:26:40;5.00;99.90
17938;DHT22;16051;53.024;8.630;2023-02-13T22:31:06;4.90;99.90
17938;DHT22;16051;53.024;8.630;2023-02-13T22:35:09;4.90;99.90
17938;DHT22;16051;53.024;8.630;2023-02-13T22:39:11;4.90;99.90
17938;DHT22;16051;53.024;8.630;2023-02-13T22:43:15;4.90;99.90
17938;DHT22;16051;53.024;8.630;2023-02-13T22:47:17;4.80;99.90
17938;DHT22;16051;53.024;8.630;2023-02-13T22:51:21;4.80;99.90
17938;DHT22;16051;53.024;8.630;2023-02-13T22:55:25;4.80;99.90
17938;DHT22;16051;53.024;8.630;2023-02-13T22:59:28;4.70;99.90
17938;DHT22;16051;53.024;8.630;2023-02-13T23:03:43;4.70;99.90
17938;DHT22;16051;53.024;8.630;2023-02-13T23:07:45;4.60;99.90
17938;DHT22;16051;53.024;8.630;2023-02-13T23:11:47;4.60;99.90
17938;DHT22;16051;53.024;8.630;2023-02-13T23:16:12;4.60;99.90
17938;DHT22;16051;53.024;8.630;2023-02-13T23:20:17;4.50;99.90
17938;DHT22;16051;53.024;8.630;2023-02-13T23:24:20;4.40;99.90
17938;DHT22;16051;53.024;8.630;2023-02-13T23:28:24;4.30;99.90
17938;DHT22;16051;53.024;8.630;2023-02-13T23:32:27;4.30;99.90
17938;DHT22;16051;53.024;8.630;2023-02-13T23:36:29;4.20;99.90
17938;DHT22;16051;53.024;8.630;2023-02-13T23:40:31;4.20;99.90
17938;DHT22;16051;53.024;8.630;2023-02-13T23:44:34;4.20;99.90
17938;DHT22;16051;53.024;8.630;2023-02-13T23:48:37;4.20;99.90
17938;DHT22;16051;53.024;8.630;2023-02-13T23:52:45;4.20;99.90
17938;DHT22;16051;53.024;8.630;2023-02-13T23:56:48;4.20;99.90
